West Camp, New York
Current Conditions -  °F | °C
As of 9:53 PM on Wednesday 22 Oct 2014 (Local Time) from KPOU Reporting Station
Light Rain Light Rain  
Wind Chill: 50°   Ceiling: 1400
Heat Index: 50°   Visibility: 10mi
Dew Point: 46°   Wind: 18mph
Humidity: 86%   Direction: 360°N
Pressure: 29.83"   Gusts: 28mph
Location:  42.12°N, 73.94°W
Report Text: KPOU 230153Z AUTO 36016G24KT 10SM -RA OVC014 10/08 A2983 RMK AO2 SLP099 P0002 T01000078 TSNO
Loading
Personal Weather Stations






























Interactive Weather Map New forecast layout! Learn more

10-Day Weather Forecast

Advertisements
Track Severe Weather on mobile